Terminal Aerodrome Forecast
Issued by NWS

Home | Current Version | Previous Version | Text Only | Print | Product List | Glossary On
Versions: 1 2 3 4 5 6 7 8 9 10 11 12 13 14 15 16 17 18 19 20 21
416
FTUS43 KGRR 170108 AAA
TAFAZO
TAF AMD
KAZO 170108Z 1701/1724 11006KT 1 1/2SM -RA BR OVC003
      TEMPO 1701/1705 1/2SM RA FG
     FM171300 22007KT 3/4SM BR VCSH OVC002
     FM171400 21006KT 1/2SM -RA FG OVC001
     FM171500 22007KT 1 1/2SM -RA BR OVC001
     FM171700 25007KT 1/4SM FG OVC003=

USA.gov is the U.S. government's official web portal to all federal, state and local government web resources and services.